sensor_id;sensor_type;location;lat;lon;timestamp;P1;durP1;ratioP1;P2;durP2;ratioP2
11064;SDS011;5585;52.530;7.320;2024-02-28T00:01:47;37.90;;;24.10;;
11064;SDS011;5585;52.530;7.320;2024-02-28T00:04:13;37.30;;;23.77;;
11064;SDS011;5585;52.530;7.320;2024-02-28T00:06:41;35.20;;;23.97;;
11064;SDS011;5585;52.530;7.320;2024-02-28T00:09:08;40.00;;;23.23;;
11064;SDS011;5585;52.530;7.320;2024-02-28T00:11:35;35.93;;;23.90;;
11064;SDS011;5585;52.530;7.320;2024-02-28T00:14:01;36.10;;;23.13;;
11064;SDS011;5585;52.530;7.320;2024-02-28T00:16:27;36.20;;;22.73;;
11064;SDS011;5585;52.530;7.320;2024-02-28T00:18:54;35.47;;;23.20;;
11064;SDS011;5585;52.530;7.320;2024-02-28T00:21:20;34.10;;;22.40;;
11064;SDS011;5585;52.530;7.320;2024-02-28T00:23:48;36.73;;;24.13;;
11064;SDS011;5585;52.530;7.320;2024-02-28T00:26:15;33.47;;;21.83;;
11064;SDS011;5585;52.530;7.320;2024-02-28T00:28:41;29.57;;;19.43;;
11064;SDS011;5585;52.530;7.320;2024-02-28T00:31:08;29.07;;;19.90;;
11064;SDS011;5585;52.530;7.320;2024-02-28T00:33:34;28.83;;;19.47;;
11064;SDS011;5585;52.530;7.320;2024-02-28T00:36:01;30.10;;;20.33;;
11064;SDS011;5585;52.530;7.320;2024-02-28T00:38:27;26.33;;;17.93;;
11064;SDS011;5585;52.530;7.320;2024-02-28T00:40:55;31.27;;;20.27;;
11064;SDS011;5585;52.530;7.320;2024-02-28T00:43:21;28.20;;;18.70;;
11064;SDS011;5585;52.530;7.320;2024-02-28T00:45:48;29.60;;;19.67;;
11064;SDS011;5585;52.530;7.320;2024-02-28T00:48:14;27.43;;;19.00;;
11064;SDS011;5585;52.530;7.320;2024-02-28T00:50:41;27.90;;;18.40;;
11064;SDS011;5585;52.530;7.320;2024-02-28T00:53:07;27.90;;;17.77;;
11064;SDS011;5585;52.530;7.320;2024-02-28T00:55:34;28.53;;;18.80;;
11064;SDS011;5585;52.530;7.320;2024-02-28T00:58:01;23.90;;;17.40;;
11064;SDS011;5585;52.530;7.320;2024-02-28T01:00:28;25.30;;;18.33;;
11064;SDS011;5585;52.530;7.320;2024-02-28T01:02:54;24.73;;;17.63;;
11064;SDS011;5585;52.530;7.320;2024-02-28T01:05:21;25.37;;;17.93;;
11064;SDS011;5585;52.530;7.320;2024-02-28T01:07:47;23.47;;;17.27;;
11064;SDS011;5585;52.530;7.320;2024-02-28T01:10:14;24.20;;;16.47;;
11064;SDS011;5585;52.530;7.320;2024-02-28T01:12:40;22.40;;;15.77;;
11064;SDS011;5585;52.530;7.320;2024-02-28T01:15:08;22.00;;;15.83;;
11064;SDS011;5585;52.530;7.320;2024-02-28T01:17:35;24.27;;;16.53;;
11064;SDS011;5585;52.530;7.320;2024-02-28T01:20:01;23.13;;;16.43;;
11064;SDS011;5585;52.530;7.320;2024-02-28T01:22:28;24.73;;;17.63;;
11064;SDS011;5585;52.530;7.320;2024-02-28T01:24:54;22.47;;;16.07;;
11064;SDS011;5585;52.530;7.320;2024-02-28T01:27:21;22.37;;;16.33;;
11064;SDS011;5585;52.530;7.320;2024-02-28T01:29:47;23.53;;;17.17;;
11064;SDS011;5585;52.530;7.320;2024-02-28T01:32:15;25.03;;;17.53;;
11064;SDS011;5585;52.530;7.320;2024-02-28T01:34:41;24.67;;;16.93;;
11064;SDS011;5585;52.530;7.320;2024-02-28T01:37:08;23.53;;;17.23;;
11064;SDS011;5585;52.530;7.320;2024-02-28T01:39:34;24.60;;;17.70;;
11064;SDS011;5585;52.530;7.320;2024-02-28T01:42:00;24.30;;;17.07;;
11064;SDS011;5585;52.530;7.320;2024-02-28T01:44:27;21.87;;;16.47;;
11064;SDS011;5585;52.530;7.320;2024-02-28T01:46:54;20.60;;;15.40;;
11064;SDS011;5585;52.530;7.320;2024-02-28T01:49:23;21.43;;;16.00;;
11064;SDS011;5585;52.530;7.320;2024-02-28T01:51:50;24.57;;;17.40;;
11064;SDS011;5585;52.530;7.320;2024-02-28T01:54:16;23.80;;;16.73;;
11064;SDS011;5585;52.530;7.320;2024-02-28T01:56:44;22.60;;;17.30;;
11064;SDS011;5585;52.530;7.320;2024-02-28T01:59:11;23.53;;;17.27;;
11064;SDS011;5585;52.530;7.320;2024-02-28T02:01:37;24.03;;;16.37;;
11064;SDS011;5585;52.530;7.320;2024-02-28T02:04:04;23.40;;;16.70;;
11064;SDS011;5585;52.530;7.320;2024-02-28T02:06:32;25.93;;;18.63;;
11064;SDS011;5585;52.530;7.320;2024-02-28T02:08:58;24.57;;;17.87;;
11064;SDS011;5585;52.530;7.320;2024-02-28T02:11:25;24.00;;;17.37;;
11064;SDS011;5585;52.530;7.320;2024-02-28T02:13:52;24.43;;;17.23;;
11064;SDS011;5585;52.530;7.320;2024-02-28T02:16:19;26.50;;;18.37;;
11064;SDS011;5585;52.530;7.320;2024-02-28T02:18:47;25.03;;;17.87;;
11064;SDS011;5585;52.530;7.320;2024-02-28T02:21:15;24.10;;;16.57;;
11064;SDS011;5585;52.530;7.320;2024-02-28T02:23:43;25.63;;;18.03;;
11064;SDS011;5585;52.530;7.320;2024-02-28T02:26:09;24.60;;;17.63;;
11064;SDS011;5585;52.530;7.320;2024-02-28T02:28:36;23.93;;;17.30;;
11064;SDS011;5585;52.530;7.320;2024-02-28T02:31:02;28.10;;;18.87;;
11064;SDS011;5585;52.530;7.320;2024-02-28T02:33:29;23.57;;;17.57;;
11064;SDS011;5585;52.530;7.320;2024-02-28T02:35:55;25.13;;;17.20;;
11064;SDS011;5585;52.530;7.320;2024-02-28T02:38:22;21.87;;;16.57;;
11064;SDS011;5585;52.530;7.320;2024-02-28T02:40:49;23.20;;;17.03;;
11064;SDS011;5585;52.530;7.320;2024-02-28T02:43:16;24.90;;;17.63;;
11064;SDS011;5585;52.530;7.320;2024-02-28T02:45:43;22.63;;;16.53;;
11064;SDS011;5585;52.530;7.320;2024-02-28T02:48:09;23.27;;;16.73;;
11064;SDS011;5585;52.530;7.320;2024-02-28T02:50:36;22.83;;;16.90;;
11064;SDS011;5585;52.530;7.320;2024-02-28T02:53:02;23.57;;;17.30;;
11064;SDS011;5585;52.530;7.320;2024-02-28T02:55:29;24.07;;;17.03;;
11064;SDS011;5585;52.530;7.320;2024-02-28T02:57:57;23.20;;;17.23;;
11064;SDS011;5585;52.530;7.320;2024-02-28T03:00:23;22.80;;;17.30;;
11064;SDS011;5585;52.530;7.320;2024-02-28T03:02:49;24.70;;;17.63;;
11064;SDS011;5585;52.530;7.320;2024-02-28T03:05:16;28.07;;;19.20;;
11064;SDS011;5585;52.530;7.320;2024-02-28T03:07:42;25.73;;;18.63;;
11064;SDS011;5585;52.530;7.320;2024-02-28T03:10:09;26.40;;;17.77;;
11064;SDS011;5585;52.530;7.320;2024-02-28T03:12:35;24.47;;;18.77;;
11064;SDS011;5585;52.530;7.320;2024-02-28T03:15:03;24.67;;;17.93;;
11064;SDS011;5585;52.530;7.320;2024-02-28T03:17:30;25.07;;;18.40;;
11064;SDS011;5585;52.530;7.320;2024-02-28T03:19:56;23.90;;;17.10;;
11064;SDS011;5585;52.530;7.320;2024-02-28T03:22:23;23.07;;;16.87;;
11064;SDS011;5585;52.530;7.320;2024-02-28T03:24:49;22.40;;;16.63;;
11064;SDS011;5585;52.530;7.320;2024-02-28T03:27:16;23.30;;;17.07;;
11064;SDS011;5585;52.530;7.320;2024-02-28T03:29:42;24.83;;;17.97;;
11064;SDS011;5585;52.530;7.320;2024-02-28T03:32:10;24.77;;;18.03;;
11064;SDS011;5585;52.530;7.320;2024-02-28T03:34:38;23.33;;;16.47;;
11064;SDS011;5585;52.530;7.320;2024-02-28T03:37:04;26.20;;;19.20;;
11064;SDS011;5585;52.530;7.320;2024-02-28T03:39:30;25.73;;;18.50;;
11064;SDS011;5585;52.530;7.320;2024-02-28T03:41:57;25.77;;;19.00;;
11064;SDS011;5585;52.530;7.320;2024-02-28T03:44:23;26.43;;;18.40;;
11064;SDS011;5585;52.530;7.320;2024-02-28T03:46:51;28.00;;;18.83;;
11064;SDS011;5585;52.530;7.320;2024-02-28T03:49:18;26.60;;;19.47;;
11064;SDS011;5585;52.530;7.320;2024-02-28T03:51:45;25.40;;;18.13;;
11064;SDS011;5585;52.530;7.320;2024-02-28T03:54:11;26.63;;;19.27;;
11064;SDS011;5585;52.530;7.320;2024-02-28T03:56:38;24.43;;;18.20;;
11064;SDS011;5585;52.530;7.320;2024-02-28T03:59:04;23.87;;;17.67;;
11064;SDS011;5585;52.530;7.320;2024-02-28T04:01:29;25.40;;;18.27;;
11064;SDS011;5585;52.530;7.320;2024-02-28T04:03:56;25.40;;;18.07;;
11064;SDS011;5585;52.530;7.320;2024-02-28T04:06:24;24.03;;;18.57;;
11064;SDS011;5585;52.530;7.320;2024-02-28T04:08:50;25.77;;;19.10;;
11064;SDS011;5585;52.530;7.320;2024-02-28T04:11:17;26.13;;;19.10;;
11064;SDS011;5585;52.530;7.320;2024-02-28T04:13:43;24.07;;;18.93;;
11064;SDS011;5585;52.530;7.320;2024-02-28T04:16:09;25.33;;;18.60;;
11064;SDS011;5585;52.530;7.320;2024-02-28T04:18:36;24.60;;;18.63;;
11064;SDS011;5585;52.530;7.320;2024-02-28T04:21:02;23.33;;;18.27;;
11064;SDS011;5585;52.530;7.320;2024-02-28T04:23:30;24.80;;;18.43;;
11064;SDS011;5585;52.530;7.320;2024-02-28T04:25:57;23.67;;;19.37;;
11064;SDS011;5585;52.530;7.320;2024-02-28T04:28:23;25.60;;;19.80;;
11064;SDS011;5585;52.530;7.320;2024-02-28T04:30:50;24.20;;;18.90;;
11064;SDS011;5585;52.530;7.320;2024-02-28T04:33:16;22.87;;;17.77;;
11064;SDS011;5585;52.530;7.320;2024-02-28T04:35:43;23.00;;;17.57;;
11064;SDS011;5585;52.530;7.320;2024-02-28T04:38:09;22.83;;;16.97;;
11064;SDS011;5585;52.530;7.320;2024-02-28T04:40:37;24.90;;;18.40;;
11064;SDS011;5585;52.530;7.320;2024-02-28T04:43:03;24.87;;;18.63;;
11064;SDS011;5585;52.530;7.320;2024-02-28T04:45:30;25.13;;;18.60;;
11064;SDS011;5585;52.530;7.320;2024-02-28T04:47:56;22.63;;;17.60;;
11064;SDS011;5585;52.530;7.320;2024-02-28T04:50:23;23.80;;;17.60;;
11064;SDS011;5585;52.530;7.320;2024-02-28T04:52:49;23.00;;;17.80;;
11064;SDS011;5585;52.530;7.320;2024-02-28T04:55:15;22.67;;;18.20;;
11064;SDS011;5585;52.530;7.320;2024-02-28T04:57:43;24.63;;;18.00;;
11064;SDS011;5585;52.530;7.320;2024-02-28T05:00:10;24.60;;;18.67;;
11064;SDS011;5585;52.530;7.320;2024-02-28T05:02:37;24.40;;;19.10;;
11064;SDS011;5585;52.530;7.320;2024-02-28T05:05:04;23.37;;;19.10;;
11064;SDS011;5585;52.530;7.320;2024-02-28T05:07:30;24.17;;;18.20;;
11064;SDS011;5585;52.530;7.320;2024-02-28T05:09:56;24.60;;;18.83;;
11064;SDS011;5585;52.530;7.320;2024-02-28T05:12:23;22.23;;;17.17;;
11064;SDS011;5585;52.530;7.320;2024-02-28T05:14:51;25.30;;;19.33;;
11064;SDS011;5585;52.530;7.320;2024-02-28T05:17:17;25.33;;;18.90;;
11064;SDS011;5585;52.530;7.320;2024-02-28T05:19:43;27.13;;;19.40;;
11064;SDS011;5585;52.530;7.320;2024-02-28T05:22:10;26.07;;;19.23;;
11064;SDS011;5585;52.530;7.320;2024-02-28T05:24:37;23.33;;;17.33;;
11064;SDS011;5585;52.530;7.320;2024-02-28T05:27:03;26.30;;;19.00;;
11064;SDS011;5585;52.530;7.320;2024-02-28T05:29:30;24.03;;;18.20;;
11064;SDS011;5585;52.530;7.320;2024-02-28T05:31:58;24.60;;;18.37;;
11064;SDS011;5585;52.530;7.320;2024-02-28T05:34:24;23.60;;;18.00;;
11064;SDS011;5585;52.530;7.320;2024-02-28T05:36:50;23.73;;;17.53;;
11064;SDS011;5585;52.530;7.320;2024-02-28T05:39:17;25.63;;;19.13;;
11064;SDS011;5585;52.530;7.320;2024-02-28T05:41:43;25.07;;;18.37;;
11064;SDS011;5585;52.530;7.320;2024-02-28T05:44:10;26.13;;;19.33;;
11064;SDS011;5585;52.530;7.320;2024-02-28T05:46:36;26.63;;;19.10;;
11064;SDS011;5585;52.530;7.320;2024-02-28T05:49:04;23.90;;;17.83;;
11064;SDS011;5585;52.530;7.320;2024-02-28T05:51:30;27.40;;;20.00;;
11064;SDS011;5585;52.530;7.320;2024-02-28T05:53:57;24.50;;;17.77;;
11064;SDS011;5585;52.530;7.320;2024-02-28T05:56:23;24.87;;;18.60;;
11064;SDS011;5585;52.530;7.320;2024-02-28T05:58:49;26.03;;;19.47;;
11064;SDS011;5585;52.530;7.320;2024-02-28T06:01:16;25.43;;;19.20;;
11064;SDS011;5585;52.530;7.320;2024-02-28T06:03:44;25.47;;;19.17;;
11064;SDS011;5585;52.530;7.320;2024-02-28T06:06:12;28.70;;;19.73;;
11064;SDS011;5585;52.530;7.320;2024-02-28T06:08:39;24.87;;;18.63;;
11064;SDS011;5585;52.530;7.320;2024-02-28T06:11:05;25.53;;;18.90;;
11064;SDS011;5585;52.530;7.320;2024-02-28T06:13:32;27.23;;;19.63;;
11064;SDS011;5585;52.530;7.320;2024-02-28T06:15:59;29.30;;;20.90;;
11064;SDS011;5585;52.530;7.320;2024-02-28T06:18:25;26.83;;;19.53;;
11064;SDS011;5585;52.530;7.320;2024-02-28T06:20:52;29.77;;;21.77;;
11064;SDS011;5585;52.530;7.320;2024-02-28T06:23:21;29.40;;;20.23;;
11064;SDS011;5585;52.530;7.320;2024-02-28T06:25:47;28.37;;;20.47;;
11064;SDS011;5585;52.530;7.320;2024-02-28T06:28:14;29.47;;;20.93;;
11064;SDS011;5585;52.530;7.320;2024-02-28T06:30:40;27.70;;;19.43;;
11064;SDS011;5585;52.530;7.320;2024-02-28T06:33:07;25.33;;;18.50;;
11064;SDS011;5585;52.530;7.320;2024-02-28T06:35:34;26.77;;;19.13;;
11064;SDS011;5585;52.530;7.320;2024-02-28T06:38:00;27.40;;;19.23;;
11064;SDS011;5585;52.530;7.320;2024-02-28T06:40:28;28.63;;;20.97;;
11064;SDS011;5585;52.530;7.320;2024-02-28T06:42:55;28.73;;;20.70;;
11064;SDS011;5585;52.530;7.320;2024-02-28T06:45:21;29.77;;;20.50;;
11064;SDS011;5585;52.530;7.320;2024-02-28T06:47:47;27.27;;;19.83;;
11064;SDS011;5585;52.530;7.320;2024-02-28T06:50:13;28.40;;;20.10;;
11064;SDS011;5585;52.530;7.320;2024-02-28T06:52:40;26.37;;;19.40;;
11064;SDS011;5585;52.530;7.320;2024-02-28T06:55:07;26.90;;;19.87;;
11064;SDS011;5585;52.530;7.320;2024-02-28T06:57:36;30.77;;;21.57;;
11064;SDS011;5585;52.530;7.320;2024-02-28T07:00:04;29.00;;;20.70;;
11064;SDS011;5585;52.530;7.320;2024-02-28T07:02:30;29.77;;;21.77;;
11064;SDS011;5585;52.530;7.320;2024-02-28T07:04:57;32.13;;;22.33;;
11064;SDS011;5585;52.530;7.320;2024-02-28T07:07:23;33.33;;;22.53;;
11064;SDS011;5585;52.530;7.320;2024-02-28T07:09:50;31.57;;;22.37;;
11064;SDS011;5585;52.530;7.320;2024-02-28T07:12:16;31.07;;;21.77;;
11064;SDS011;5585;52.530;7.320;2024-02-28T07:14:44;32.43;;;22.20;;
11064;SDS011;5585;52.530;7.320;2024-02-28T07:17:10;33.93;;;21.77;;
11064;SDS011;5585;52.530;7.320;2024-02-28T07:19:37;30.57;;;21.37;;
11064;SDS011;5585;52.530;7.320;2024-02-28T07:22:03;32.00;;;21.77;;
11064;SDS011;5585;52.530;7.320;2024-02-28T07:24:30;35.13;;;22.73;;
11064;SDS011;5585;52.530;7.320;2024-02-28T07:26:57;36.23;;;24.60;;
11064;SDS011;5585;52.530;7.320;2024-02-28T07:29:23;35.37;;;23.10;;
11064;SDS011;5585;52.530;7.320;2024-02-28T07:31:51;34.40;;;24.07;;
11064;SDS011;5585;52.530;7.320;2024-02-28T07:34:17;35.30;;;24.03;;
11064;SDS011;5585;52.530;7.320;2024-02-28T07:36:44;35.47;;;24.60;;
11064;SDS011;5585;52.530;7.320;2024-02-28T07:39:10;33.67;;;22.87;;
11064;SDS011;5585;52.530;7.320;2024-02-28T07:41:37;30.40;;;21.07;;
11064;SDS011;5585;52.530;7.320;2024-02-28T07:44:04;33.87;;;22.17;;
11064;SDS011;5585;52.530;7.320;2024-02-28T07:46:32;33.23;;;22.33;;
11064;SDS011;5585;52.530;7.320;2024-02-28T07:48:59;30.93;;;21.43;;
11064;SDS011;5585;52.530;7.320;2024-02-28T07:51:26;38.37;;;25.23;;
11064;SDS011;5585;52.530;7.320;2024-02-28T07:53:53;36.73;;;24.43;;
11064;SDS011;5585;52.530;7.320;2024-02-28T07:56:19;37.47;;;24.50;;
11064;SDS011;5585;52.530;7.320;2024-02-28T07:58:46;37.87;;;24.70;;
11064;SDS011;5585;52.530;7.320;2024-02-28T08:01:13;36.93;;;23.83;;
11064;SDS011;5585;52.530;7.320;2024-02-28T08:03:41;35.40;;;24.70;;
11064;SDS011;5585;52.530;7.320;2024-02-28T08:06:08;39.03;;;25.97;;
11064;SDS011;5585;52.530;7.320;2024-02-28T08:08:35;42.53;;;26.63;;
11064;SDS011;5585;52.530;7.320;2024-02-28T08:11:01;38.70;;;25.83;;
11064;SDS011;5585;52.530;7.320;2024-02-28T08:13:28;39.53;;;25.33;;
11064;SDS011;5585;52.530;7.320;2024-02-28T08:15:54;34.97;;;24.67;;
11064;SDS011;5585;52.530;7.320;2024-02-28T08:18:21;37.27;;;25.23;;
11064;SDS011;5585;52.530;7.320;2024-02-28T08:20:47;34.73;;;23.67;;
11064;SDS011;5585;52.530;7.320;2024-02-28T08:23:16;32.57;;;23.47;;
11064;SDS011;5585;52.530;7.320;2024-02-28T08:25:43;35.37;;;24.57;;
11064;SDS011;5585;52.530;7.320;2024-02-28T08:28:09;32.30;;;23.53;;
11064;SDS011;5585;52.530;7.320;2024-02-28T08:30:36;35.60;;;24.57;;
11064;SDS011;5585;52.530;7.320;2024-02-28T08:33:03;33.43;;;23.13;;
11064;SDS011;5585;52.530;7.320;2024-02-28T08:35:29;33.10;;;23.17;;
11064;SDS011;5585;52.530;7.320;2024-02-28T08:37:56;36.63;;;25.40;;
11064;SDS011;5585;52.530;7.320;2024-02-28T08:40:23;34.60;;;24.47;;
11064;SDS011;5585;52.530;7.320;2024-02-28T08:42:50;32.87;;;23.67;;
11064;SDS011;5585;52.530;7.320;2024-02-28T08:45:18;30.13;;;23.23;;
11064;SDS011;5585;52.530;7.320;2024-02-28T08:47:44;34.40;;;24.40;;
11064;SDS011;5585;52.530;7.320;2024-02-28T08:50:11;35.23;;;25.53;;
11064;SDS011;5585;52.530;7.320;2024-02-28T08:52:37;37.13;;;27.17;;
11064;SDS011;5585;52.530;7.320;2024-02-28T08:55:04;32.27;;;23.13;;
11064;SDS011;5585;52.530;7.320;2024-02-28T08:57:32;31.80;;;23.30;;
11064;SDS011;5585;52.530;7.320;2024-02-28T08:59:59;33.47;;;24.37;;
11064;SDS011;5585;52.530;7.320;2024-02-28T09:02:25;34.43;;;24.23;;
11064;SDS011;5585;52.530;7.320;2024-02-28T09:04:52;37.07;;;25.87;;
11064;SDS011;5585;52.530;7.320;2024-02-28T09:07:21;34.00;;;23.37;;
11064;SDS011;5585;52.530;7.320;2024-02-28T09:09:48;33.17;;;22.83;;
11064;SDS011;5585;52.530;7.320;2024-02-28T09:12:14;31.27;;;23.73;;
11064;SDS011;5585;52.530;7.320;2024-02-28T09:14:42;33.47;;;24.60;;
11064;SDS011;5585;52.530;7.320;2024-02-28T09:17:10;32.20;;;22.87;;
11064;SDS011;5585;52.530;7.320;2024-02-28T09:19:37;28.47;;;21.80;;
11064;SDS011;5585;52.530;7.320;2024-02-28T09:22:03;32.20;;;22.17;;
11064;SDS011;5585;52.530;7.320;2024-02-28T09:24:30;29.67;;;22.27;;
11064;SDS011;5585;52.530;7.320;2024-02-28T09:26:57;31.47;;;21.27;;
11064;SDS011;5585;52.530;7.320;2024-02-28T09:29:23;27.30;;;20.17;;
11064;SDS011;5585;52.530;7.320;2024-02-28T09:31:51;29.33;;;21.50;;
11064;SDS011;5585;52.530;7.320;2024-02-28T09:34:16;28.97;;;21.03;;
11064;SDS011;5585;52.530;7.320;2024-02-28T09:36:43;26.77;;;20.47;;
11064;SDS011;5585;52.530;7.320;2024-02-28T09:39:10;27.23;;;19.67;;
11064;SDS011;5585;52.530;7.320;2024-02-28T09:41:36;24.70;;;19.17;;
11064;SDS011;5585;52.530;7.320;2024-02-28T09:44:03;24.90;;;19.30;;
11064;SDS011;5585;52.530;7.320;2024-02-28T09:46:31;27.73;;;19.47;;
11064;SDS011;5585;52.530;7.320;2024-02-28T09:49:00;25.43;;;18.97;;
11064;SDS011;5585;52.530;7.320;2024-02-28T09:51:28;24.37;;;18.63;;
11064;SDS011;5585;52.530;7.320;2024-02-28T09:53:54;25.33;;;19.13;;
11064;SDS011;5585;52.530;7.320;2024-02-28T09:56:22;22.27;;;17.70;;
11064;SDS011;5585;52.530;7.320;2024-02-28T09:58:49;23.17;;;16.90;;
11064;SDS011;5585;52.530;7.320;2024-02-28T10:01:16;25.00;;;18.87;;
11064;SDS011;5585;52.530;7.320;2024-02-28T10:03:44;25.00;;;19.40;;
11064;SDS011;5585;52.530;7.320;2024-02-28T10:06:12;25.90;;;19.00;;
11064;SDS011;5585;52.530;7.320;2024-02-28T10:08:40;22.33;;;16.97;;
11064;SDS011;5585;52.530;7.320;2024-02-28T10:11:07;22.27;;;18.10;;
11064;SDS011;5585;52.530;7.320;2024-02-28T10:13:33;23.57;;;19.10;;
11064;SDS011;5585;52.530;7.320;2024-02-28T10:16:00;23.57;;;18.10;;
11064;SDS011;5585;52.530;7.320;2024-02-28T10:18:28;23.50;;;18.90;;
11064;SDS011;5585;52.530;7.320;2024-02-28T10:20:56;23.57;;;18.77;;
11064;SDS011;5585;52.530;7.320;2024-02-28T10:23:24;24.13;;;19.87;;
11064;SDS011;5585;52.530;7.320;2024-02-28T10:25:51;23.17;;;18.30;;
11064;SDS011;5585;52.530;7.320;2024-02-28T10:28:17;20.30;;;17.87;;
11064;SDS011;5585;52.530;7.320;2024-02-28T10:30:44;22.07;;;17.53;;
11064;SDS011;5585;52.530;7.320;2024-02-28T10:33:11;21.67;;;17.43;;
11064;SDS011;5585;52.530;7.320;2024-02-28T10:35:38;22.60;;;17.93;;
11064;SDS011;5585;52.530;7.320;2024-02-28T10:38:05;21.97;;;18.30;;
11064;SDS011;5585;52.530;7.320;2024-02-28T10:40:33;23.83;;;18.70;;
11064;SDS011;5585;52.530;7.320;2024-02-28T10:43:00;23.17;;;19.10;;
11064;SDS011;5585;52.530;7.320;2024-02-28T10:45:27;22.93;;;17.87;;
11064;SDS011;5585;52.530;7.320;2024-02-28T10:47:55;22.40;;;18.37;;
11064;SDS011;5585;52.530;7.320;2024-02-28T10:50:22;21.40;;;17.33;;
11064;SDS011;5585;52.530;7.320;2024-02-28T10:52:49;22.37;;;16.90;;
11064;SDS011;5585;52.530;7.320;2024-02-28T10:55:20;23.50;;;18.13;;
11064;SDS011;5585;52.530;7.320;2024-02-28T10:57:50;22.03;;;17.70;;
11064;SDS011;5585;52.530;7.320;2024-02-28T11:00:19;22.93;;;17.67;;
11064;SDS011;5585;52.530;7.320;2024-02-28T11:02:45;21.77;;;17.70;;
11064;SDS011;5585;52.530;7.320;2024-02-28T11:05:12;20.73;;;16.90;;
11064;SDS011;5585;52.530;7.320;2024-02-28T11:07:40;23.60;;;18.07;;
11064;SDS011;5585;52.530;7.320;2024-02-28T11:10:07;19.23;;;16.70;;
11064;SDS011;5585;52.530;7.320;2024-02-28T11:12:35;20.73;;;17.43;;
11064;SDS011;5585;52.530;7.320;2024-02-28T11:15:04;19.27;;;16.30;;
11064;SDS011;5585;52.530;7.320;2024-02-28T11:17:31;21.73;;;17.37;;
11064;SDS011;5585;52.530;7.320;2024-02-28T11:19:58;22.63;;;17.23;;
11064;SDS011;5585;52.530;7.320;2024-02-28T11:22:27;21.37;;;17.17;;
11064;SDS011;5585;52.530;7.320;2024-02-28T11:24:54;23.03;;;18.73;;
11064;SDS011;5585;52.530;7.320;2024-02-28T11:27:21;19.73;;;17.03;;
11064;SDS011;5585;52.530;7.320;2024-02-28T11:29:47;19.00;;;16.40;;
11064;SDS011;5585;52.530;7.320;2024-02-28T11:32:16;20.40;;;17.33;;
11064;SDS011;5585;52.530;7.320;2024-02-28T11:34:42;19.87;;;17.13;;
11064;SDS011;5585;52.530;7.320;2024-02-28T11:37:10;23.93;;;18.93;;
11064;SDS011;5585;52.530;7.320;2024-02-28T11:39:36;22.30;;;18.00;;
11064;SDS011;5585;52.530;7.320;2024-02-28T11:42:09;23.63;;;18.80;;
11064;SDS011;5585;52.530;7.320;2024-02-28T11:44:36;23.30;;;17.80;;
11064;SDS011;5585;52.530;7.320;2024-02-28T11:47:03;22.87;;;18.93;;
11064;SDS011;5585;52.530;7.320;2024-02-28T11:49:33;23.60;;;18.37;;
11064;SDS011;5585;52.530;7.320;2024-02-28T11:51:59;22.80;;;18.27;;
11064;SDS011;5585;52.530;7.320;2024-02-28T11:54:26;24.20;;;18.73;;
11064;SDS011;5585;52.530;7.320;2024-02-28T11:56:52;23.07;;;19.10;;
11064;SDS011;5585;52.530;7.320;2024-02-28T11:59:19;23.73;;;19.30;;
11064;SDS011;5585;52.530;7.320;2024-02-28T12:01:45;23.23;;;19.27;;
11064;SDS011;5585;52.530;7.320;2024-02-28T12:04:12;20.47;;;18.00;;
11064;SDS011;5585;52.530;7.320;2024-02-28T12:06:40;21.30;;;18.50;;
11064;SDS011;5585;52.530;7.320;2024-02-28T12:09:06;21.07;;;17.77;;
11064;SDS011;5585;52.530;7.320;2024-02-28T12:11:34;24.87;;;18.80;;
11064;SDS011;5585;52.530;7.320;2024-02-28T12:14:02;22.93;;;18.60;;
11064;SDS011;5585;52.530;7.320;2024-02-28T12:16:29;26.40;;;19.00;;
11064;SDS011;5585;52.530;7.320;2024-02-28T12:18:56;23.97;;;18.40;;
11064;SDS011;5585;52.530;7.320;2024-02-28T12:21:22;26.73;;;19.33;;
11064;SDS011;5585;52.530;7.320;2024-02-28T12:23:50;22.83;;;18.83;;
11064;SDS011;5585;52.530;7.320;2024-02-28T12:26:17;26.67;;;19.37;;
11064;SDS011;5585;52.530;7.320;2024-02-28T12:28:44;22.63;;;18.13;;
11064;SDS011;5585;52.530;7.320;2024-02-28T12:31:10;21.27;;;17.40;;
11064;SDS011;5585;52.530;7.320;2024-02-28T12:33:38;21.87;;;17.37;;
11064;SDS011;5585;52.530;7.320;2024-02-28T12:36:04;23.97;;;17.40;;
11064;SDS011;5585;52.530;7.320;2024-02-28T12:38:30;26.10;;;18.50;;
11064;SDS011;5585;52.530;7.320;2024-02-28T12:40:58;23.13;;;16.83;;
11064;SDS011;5585;52.530;7.320;2024-02-28T12:43:24;22.93;;;17.10;;
11064;SDS011;5585;52.530;7.320;2024-02-28T12:45:51;25.30;;;18.73;;
11064;SDS011;5585;52.530;7.320;2024-02-28T12:48:17;23.30;;;18.70;;
11064;SDS011;5585;52.530;7.320;2024-02-28T12:50:44;22.37;;;17.40;;
11064;SDS011;5585;52.530;7.320;2024-02-28T12:53:10;23.97;;;18.10;;
11064;SDS011;5585;52.530;7.320;2024-02-28T12:55:37;22.33;;;17.37;;
11064;SDS011;5585;52.530;7.320;2024-02-28T12:58:05;22.60;;;17.97;;
11064;SDS011;5585;52.530;7.320;2024-02-28T13:00:31;24.10;;;18.00;;
11064;SDS011;5585;52.530;7.320;2024-02-28T13:02:58;24.40;;;19.70;;
11064;SDS011;5585;52.530;7.320;2024-02-28T13:05:24;22.90;;;18.53;;
11064;SDS011;5585;52.530;7.320;2024-02-28T13:07:51;22.40;;;17.03;;
11064;SDS011;5585;52.530;7.320;2024-02-28T13:10:17;23.63;;;17.97;;
11064;SDS011;5585;52.530;7.320;2024-02-28T13:12:44;23.23;;;18.60;;
11064;SDS011;5585;52.530;7.320;2024-02-28T13:15:12;28.03;;;20.43;;
11064;SDS011;5585;52.530;7.320;2024-02-28T13:17:38;22.50;;;18.47;;
11064;SDS011;5585;52.530;7.320;2024-02-28T13:20:07;26.73;;;19.33;;
11064;SDS011;5585;52.530;7.320;2024-02-28T13:22:33;22.43;;;17.03;;
11064;SDS011;5585;52.530;7.320;2024-02-28T13:25:00;23.50;;;17.73;;
11064;SDS011;5585;52.530;7.320;2024-02-28T13:27:26;23.17;;;18.07;;
11064;SDS011;5585;52.530;7.320;2024-02-28T13:29:53;20.97;;;16.13;;
11064;SDS011;5585;52.530;7.320;2024-02-28T13:32:20;23.60;;;16.93;;
11064;SDS011;5585;52.530;7.320;2024-02-28T13:34:47;21.13;;;17.13;;
11064;SDS011;5585;52.530;7.320;2024-02-28T13:37:13;24.67;;;17.17;;
11064;SDS011;5585;52.530;7.320;2024-02-28T13:39:40;21.33;;;17.20;;
11064;SDS011;5585;52.530;7.320;2024-02-28T13:42:06;22.03;;;17.00;;
11064;SDS011;5585;52.530;7.320;2024-02-28T13:44:34;20.30;;;16.27;;
11064;SDS011;5585;52.530;7.320;2024-02-28T13:47:01;20.70;;;15.80;;
11064;SDS011;5585;52.530;7.320;2024-02-28T13:49:29;23.83;;;15.80;;
11064;SDS011;5585;52.530;7.320;2024-02-28T13:51:55;21.47;;;17.07;;
11064;SDS011;5585;52.530;7.320;2024-02-28T13:54:22;22.33;;;15.97;;
11064;SDS011;5585;52.530;7.320;2024-02-28T13:56:48;21.03;;;16.07;;
11064;SDS011;5585;52.530;7.320;2024-02-28T13:59:15;20.30;;;17.00;;
11064;SDS011;5585;52.530;7.320;2024-02-28T14:01:41;18.57;;;14.57;;
11064;SDS011;5585;52.530;7.320;2024-02-28T14:04:07;21.10;;;17.10;;
11064;SDS011;5585;52.530;7.320;2024-02-28T14:06:35;22.03;;;16.93;;
11064;SDS011;5585;52.530;7.320;2024-02-28T14:09:01;20.53;;;16.50;;
11064;SDS011;5585;52.530;7.320;2024-02-28T14:11:28;25.13;;;19.17;;
11064;SDS011;5585;52.530;7.320;2024-02-28T14:13:55;23.10;;;18.60;;
11064;SDS011;5585;52.530;7.320;2024-02-28T14:16:21;23.67;;;18.03;;
11064;SDS011;5585;52.530;7.320;2024-02-28T14:18:48;24.63;;;17.67;;
11064;SDS011;5585;52.530;7.320;2024-02-28T14:21:14;23.63;;;18.23;;
11064;SDS011;5585;52.530;7.320;2024-02-28T14:23:42;29.73;;;20.73;;
11064;SDS011;5585;52.530;7.320;2024-02-28T14:26:08;23.80;;;19.23;;
11064;SDS011;5585;52.530;7.320;2024-02-28T14:28:35;22.93;;;17.83;;
11064;SDS011;5585;52.530;7.320;2024-02-28T14:31:01;26.00;;;19.23;;